LSA Course Guide - Open SPANISH Classes

Last updated on: 11/20/2017 7:46:19 AM
Class #Catalog #TitleSectionComp# SeatsWLStartEndDaysLocation
19253 P 100Intens Elem Span001REC15  9:00AM11:00AMMT THF2106 MLB
21426 P 100Intens Elem Span003REC15  1:00PM 3:00PMMT THF2106 MLB
29467 P 101Elementary001REC18 11:00AM12:00PMMT THF 
27004 P 101Elementary006REC18 12:00PM 1:00PMMT THF1339 MH
20924 P 102Elementary002REC18  9:00AM10:00AMMT THFB134 MLB
27006 P 102Elementary003REC18  9:00AM10:00AMMT THFG144 AH
20954 P 102Elementary004REC18 10:00AM11:00AMMT THFB134 MLB
31144 P 102Elementary007REC18 11:00AM12:00PMMT THF2407 MH
31132 P 102Elementary009REC18 12:00PM 1:00PMMT THF1508 CCL
31145 P 102Elementary011REC18  1:00PM 2:00PMMT THF2407 MH
17217 P 102Elementary013REC18  2:00PM 3:00PMMT THFB134 MLB
24090 P 102Elementary014REC18  3:00PM 4:00PMMT THFB134 MLB
24091 P 102Elementary015REC18  4:00PM 5:00PMMT THFB134 MLB
24111 P 102Elementary020REC18 11:30AM 1:00PMMT THF2412 MLB
22554 P 103Review-Elementary003REC18  8:00AM 9:00AMMT THF2135 NQ
24650 P 103Review-Elementary004REC18  9:00AM10:00AMMT THFG168 AH
22555 P 103Review-Elementary005REC18  9:00AM10:00AMMT THF3401 MH (was 3427)
25415 P 103Review-Elementary006REC18 10:00AM11:00AMMT THF2212 MLB
25416 P 103Review-Elementary007REC18 11:00AM12:00PMMT THFB134 MLB
27007 P 103Review-Elementary008REC18 12:00PM 1:00PMMT THFB134 MLB
25417 P 103Review-Elementary010REC18  1:00PM 2:00PMMT THFB134 MLB
24112 P 103Review-Elementary011REC18  2:00PM 3:00PMMT THF 
31133 P 103Review-Elementary012REC18  3:00PM 4:00PMMT THF 
25418 P 103Review-Elementary013REC18  3:00PM 4:00PMMT THF1508 CCL
25419 P 103Review-Elementary014REC18  4:00PM 5:00PMMT THFB109 MLB
24113 P 103Review-Elementary020REC18  1:00PM 2:30PMMT THF2412 MLB
24388 P 230Intensive 2nd Yr003REC15  1:00PM 3:00PMMT THF2448 MH
17218 P 231Second Year Span001REC18  8:00AM 9:00AMMT THFB124 MLB
24389 P 231Second Year Span002REC18  9:00AM10:00AMMT THF180 TAP
17219 P 231Second Year Span003REC18  9:00AM10:00AMMT THFB124 MLB
21878 P 231Second Year Span004REC18  9:00AM10:00AMMT THF3330 MH (was 3410)
29466 P 231Second Year Span005REC18  9:00AM10:00AMMT THF1507 CCL
31879 P 231Second Year Span006REC18  9:00AM10:00AMMT THF1508 CCL
12002 P 231Second Year Span007REC18 10:00AM11:00AMMT THFB122 MLB
20270 P 231Second Year Span008REC18 10:00AM11:00AMMT THFB124 MLB
20271 P 231Second Year Span011REC18 11:00AM12:00PMMT THFB122 MLB
12003 P 231Second Year Span013REC18 11:00AM12:00PMMT THFB124 MLB
17220 P 231Second Year Span017REC18 12:00PM 1:00PMMT THFB122 MLB
24390 P 231Second Year Span018REC18 12:00PM 1:00PMMT THFB124 MLB
17221 P 231Second Year Span023REC18  1:00PM 2:00PMMT THFB122 MLB
23248 P 231Second Year Span024REC18  1:00PM 2:00PMMT THFB124 MLB
25426 P 231Second Year Span025REC18  1:00PM 2:00PMMT THF2202 MLB
19910 P 231Second Year Span028REC18  2:00PM 3:00PMMT THFB122 MLB
23249 P 231Second Year Span029REC18  2:00PM 3:00PMMT THFB124 MLB
24391 P 231Second Year Span032REC18  3:00PM 4:00PMMT THFB122 MLB
16371 P 231Second Year Span033REC18  3:00PM 4:00PMMT THFB124 MLB
25427 P 231Second Year Span034REC18  3:00PM 4:00PMMT THF 
25428 P 231Second Year Span036REC18  4:00PM 5:00PMMT THFB122 MLB
31136 P 231Second Year Span038REC18  4:00PM 5:00PMMT THFB124 MLB
12005 P 232Second Year Span001REC18  8:00AM 9:00AMMT THFB135 MLB
27010 P 232Second Year Span002REC18  8:00AM 9:00AMMT THFB137 MLB
24092 P 232Second Year Span003REC18  9:00AM10:00AMMT THF 
20956 P 232Second Year Span004REC18  9:00AM10:00AMMT THFB137 MLB
21879 P 232Second Year Span005REC18  9:00AM10:00AMMT THF 
22798 P 232Second Year Span006REC18  9:00AM10:00AMMT THFB135 MLB
20382 P 232Second Year Span007REC18 10:00AM11:00AMMT THFB135 MLB
24651 P 232Second Year Span008REC18 10:00AM11:00AMMT THFB137 MLB
20383 P 232Second Year Span009REC18 10:00AM11:00AMMT THFG160 AH
24652 P 232Second Year Span010REC18 10:00AM11:00AMMT THFG144 AH
12006 P 232Second Year Span011REC18 11:00AM12:00PMMT THFB135 MLB
21471 P 232Second Year Span012REC18 11:00AM12:00PMMT THFG144 AH
27009 P 232Second Year Span013REC18 11:00AM12:00PMMT THFB137 MLB
25459 P 232Second Year Span014REC18 11:00AM12:00PMMT THF1508 CCL
22908 P 232Second Year Span015REC18 11:00AM12:00PMMT THF 
21470 P 232Second Year Span016REC18 12:00PM 1:00PMMT THFB135 MLB
25460 P 232Second Year Span017REC18 12:00PM 1:00PMMT THFB137 MLB
20519 P 232Second Year Span018REC18 12:00PM 1:00PMMT THF 
25461 P 232Second Year Span019REC18 12:00PM 1:00PMMT THF 
23813 P 232Second Year Span020REC18  1:00PM 2:00PMMT THF 
12007 P 232Second Year Span021REC18  1:00PM 2:00PMMT THFB135 MLB
22909 P 232Second Year Span022REC18  1:00PM 2:00PMMT THFB137 MLB
12008 P 232Second Year Span023REC18  1:00PM 2:00PMMT THF1436 MH
25462 P 232Second Year Span024REC18  1:00PM 2:00PMMT THF3401 MH (was 3427)
22799 P 232Second Year Span025REC18  2:00PM 3:00PMMT THFB135 MLB
25463 P 232Second Year Span026REC18  2:00PM 3:00PMMT THFB137 MLB
27008 P 232Second Year Span027REC18  2:00PM 3:00PMMT THF2407 MH
22800 P 232Second Year Span028REC18  2:00PM 3:00PMMT THFG144 AH
12009 P 232Second Year Span029REC18  3:00PM 4:00PMMT THFB135 MLB
25464 P 232Second Year Span030REC18  3:00PM 4:00PMMT THFB137 MLB
12010 P 232Second Year Span031REC18  3:00PM 4:00PMMT THF2407 MH
22387 P 232Second Year Span032REC18  3:00PM 4:00PMMT THFG144 AH
17222 P 232Second Year Span033REC18  4:00PM 5:00PMMT THFB135 MLB
25465 P 232Second Year Span034REC18  4:00PM 5:00PMMT THFB137 MLB
25466 P 232Second Year Span035REC18  4:00PM 5:00PMMT THFB103 MLB
31141 P 277Rdg, Grammar, & Comp001REC18  8:00AM 9:00AMM W FB111 MLB
21764 P 277Rdg, Grammar, & Comp007REC18  9:00AM10:00AMM W FB111 MLB
31139 P 277Rdg, Grammar, & Comp009REC18 10:00AM11:00AMM W FB111 MLB
23370 P 277Rdg, Grammar, & Comp010REC18 10:00AM11:00AMM W F1624 CHEM
21765 P 277Rdg, Grammar, & Comp012REC18 11:00AM12:00PMM W F1624 CHEM
31142 P 277Rdg, Grammar, & Comp013REC18 11:00AM12:00PMM W F1372 EH
21766 P 277Rdg, Grammar, & Comp015REC18 12:00PM 1:00PMM W FB111 MLB
25480 P 277Rdg, Grammar, & Comp016REC18 12:00PM 1:00PMM W F1650 CHEM
21767 P 277Rdg, Grammar, & Comp020REC18  1:00PM 2:00PMM W FB111 MLB
27011 P 277Rdg, Grammar, & Comp021REC18  1:00PM 2:00PMM W FG144 AH
21768 P 277Rdg, Grammar, & Comp024REC18  2:00PM 3:00PMM W FB111 MLB
31140 P 277Rdg, Grammar, & Comp026REC18  3:00PM 4:00PMM W F2330 MH
24094 P 277Rdg, Grammar, & Comp028REC18  4:00PM 5:00PMM W FB111 MLB
22902 P 280Conv Sp/LAm Film005REC18 12:00PM 1:00PMM W F1509 CCL
27043 P 280Conv Sp/LAm Film006REC18  2:00PM 3:00PMM W F 
25894 P 280Conv Sp/LAm Film007REC18  3:00PM 4:00PMM W FB109 MLB
30519 P 280Conv Sp/LAm Film008REC18 10:00AM11:30AMM W  B113 MLB
31321 P 280Conv Sp/LAm Film009REC18  1:00PM 2:00PMM W F2114 MLB
31366 P 280Conv Sp/LAm Film010REC18 11:00AM12:00PMM W F1509 CCL
30516 P 283Sp-Professions001REC18  8:30AM10:00AM T TH B103 MLB
23219 P 283Sp-Professions003REC18 10:00AM11:30AM T TH B103 MLB
30602 P 287Written Expression001REC18 10:00AM11:30AMM W  B109 MLB
21957 P 287Written Expression003REC18  1:00PM 2:30PMM W  1339 MH
22585 P 289Intro to Translation001REC18  8:30AM10:00AMM W  3096 EH
30532 P 289Intro to Translation002REC18  1:00PM 2:30PM T TH B103 MLB
25887 P 295Intro Hispanic Lits002REC18 10:00AM11:00AMM W FB103 MLB
25888 P 295Intro Hispanic Lits003REC18 11:00AM12:00PMM W FB103 MLB
25889 P 295Intro Hispanic Lits004REC18 12:00PM 1:00PMM W FB103 MLB
27571 P 295Intro Hispanic Lits005REC18  1:00PM 2:00PMM W FB103 MLB
30517 P 295Intro Hispanic Lits006REC18  9:00AM10:00AMM W F 
30518 P 296Spec Topics Lit&Cul001REC18  9:00AM10:00AMM W F1339 MH
27022 P 298Intro Spanish Ling001LEC18  4:00PM 5:30PMM W   
31487 P 298Intro Spanish Ling002LEC18  2:30PM 4:00PM T TH B103 MLB
24065 P 315Issues Carib & So Am002REC18 11:30AM 1:00PM T TH B113 MLB
30554 P 330Advanced Catalan001REC18 10:00AM11:30AM T TH B111 MLB
27023 P 332Narr Lat Am Spain001REC18 10:00AM11:30AM T TH  
30607 P 332Narr Lat Am Spain002REC18  2:30PM 4:00PM T TH B111 MLB
31490 P 333Techn Pronunciation001REC18  8:30AM10:00AMM W  B115A MLB
31486 P 335Contemp Cult Prod001LEC18  1:00PM 2:30PMM W  B118 MLB
30614 P 337Poetry Workshop002REC18 10:00AM11:30AM T TH B113 MLB
32857 P 342Contemp Lat Am Cult001REC18 11:30AM 1:00PMM W   
27569 P 342Contemp Lat Am Cult002REC18  2:30PM 4:00PMM W  B113 MLB
30603 P 369Intro Film Criticism001REC18  2:30PM 4:00PMM W  2175 NQ
30526 P 372Span Lit II003REC18 11:30AM 1:00PM T TH B115A MLB
31485 P 372Span Lit II004REC18 11:30AM 1:00PMM W   
28537 P 373Topics Hisp Studies001REC18  1:00PM 2:30PM T TH B113 MLB
30608 P 373Topics Hisp Studies003REC18  1:00PM 2:30PM T TH B115A MLB
31579 P 373Topics Hisp Studies004REC18 11:30AM 1:00PM T TH  
30524 P 381Lat-Am Lit I001REC18 11:30AM 1:00PMM W  B109 MLB
27028 P 411Advanced Syntax001REC18 10:00AM11:30AM T TH B109 MLB
31513 P 415Probs Translation001LEC18 10:00AM11:30AMM W  B115A MLB
31514 P 415Probs Translation002LEC18  1:00PM 2:30PMM W   
27021 P 418Spanish SLA002REC18  2:30PM 4:00PMM W   
30523 P 420Lat Amer Film001REC18 10:00AM11:30AM T TH B115A MLB
30610 P 420Lat Amer Film002REC18  2:30PM 4:00PM T TH B115A MLB
30623 P 423Visual Cult Hisp Wrl002REC18  1:00PM 2:30PMM W  B115A MLB
30528 P 426Film Genres002REC18 11:30AM 1:00PMM W  B115A MLB
31556 P 430Adv Stds Hisp Cult004LEC18  2:30PM 4:00PM T TH  
31603 P 430Adv Stds Hisp Cult005LEC18 11:30AM 1:00PM T TH B109 MLB
32856 P 432Gender & Sexuality001REC18  4:00PM 5:30PMM W  B113 MLB
26072 P 437Lit Stds&Criticsm002REC18 10:00AM11:30AMM W  1507 CCL
30525 P 438Pol & Econ Thought001LEC18 11:30AM 1:00PMM W  1512 CCL
30556 P 441Catalan Lit & Cult001REC18 11:30AM 1:00PM T TH B111 MLB
30612 P 443Historiography LAmSp001REC18  2:30PM 4:00PM T TH B109 MLB
31484 P 443Historiography LAmSp002REC18 10:00AM11:30AMM W   
30609 P 447The Archive002REC18  2:30PM 4:00PMM W  B115A MLB
31554 P 447The Archive004REC18  1:00PM 2:30PM T TH B111 MLB
30521 P 459Cervantes001LEC18 10:00AM11:30AMM W   
31216 P 467Lit&Artistic Mvmts001REC18  1:00PM 2:30PM T TH 2114 MLB
33500 P 467Lit&Artistic Mvmts002REC18 11:30AM 1:00PM T TH 2155 NQ
27035 P 468Performance001REC18 11:30AM 1:00PMM W  B113 MLB
30611 P 472Indigenous Societies001LEC18  2:30PM 4:00PMM W  B118 MLB
30622 P 473Col Postcol003REC18 11:30AM 1:00PM T TH B103 MLB
27561 P 475L-Am/Span Narrative001REC18  2:30PM 4:00PM T TH 2412 MLB
30624 P 487Studies Hisp Ling001REC18  1:00PM 2:30PMM W  B113 MLB
30600 P 488Topics Lit/Hist/Cult005REC18  1:00PM 2:30PM T TH B109 MLB
31488 P 488Topics Lit/Hist/Cult009REC18  2:30PM 4:00PMM W  3401 MH (was 3427)
30636 P 676Intellectual History001SEM15 12:00PM 3:00PM   TH 4309 MLB
30633 P 821Gender&Sexuality001SEM8  1:00PM 4:00PM T   4309 MLB
31221 P 881Theory&Culture001SEM15  1:00PM 4:00PMM    4309 MLB
* Classes marked with an asterisk have seats available, but are closed because there is an active wait list. Student must contact Instructor or Dept to obtain permission to enroll. There may be other closed courses that also have wait lists that do NOT appear here.